createdAt,value
2019-04-28T00:02:20.584Z,101356.13
2019-04-28T00:04:49.200Z,101358.63
2019-04-28T00:07:16.424Z,101357.64
2019-04-28T00:09:43.679Z,101363.38
2019-04-28T00:12:11.479Z,101370.30
2019-04-28T00:14:39.024Z,101376.87
2019-04-28T00:17:07.366Z,101376.87
2019-04-28T00:19:34.933Z,101370.30
2019-04-28T00:22:24.388Z,101372.93
2019-04-28T00:25:11.541Z,101379.07
2019-04-28T00:27:38.802Z,101382.87
2019-04-28T00:30:07.131Z,101381.90
2019-04-28T00:32:34.353Z,101381.34
2019-04-28T00:35:02.350Z,101389.13
2019-04-28T00:37:34.899Z,101382.02
2019-04-28T00:40:02.360Z,101384.50
2019-04-28T00:42:31.339Z,101383.86
2019-04-28T00:44:58.838Z,101394.36
2019-04-28T00:47:26.068Z,101396.52
2019-04-28T00:49:53.353Z,101398.06
2019-04-28T00:52:22.185Z,101402.38
2019-04-28T00:54:50.105Z,101395.39
2019-04-28T00:57:18.002Z,101402.18
2019-04-28T00:59:54.137Z,101402.18
2019-04-28T01:02:34.545Z,101395.76
2019-04-28T01:05:02.018Z,101394.86
2019-04-28T01:07:31.327Z,101403.63
2019-04-28T01:09:58.460Z,101398.05
2019-04-28T01:12:25.689Z,101397.59
2019-04-28T01:14:55.527Z,101397.59
2019-04-28T01:17:40.228Z,101409.13
2019-04-28T01:20:09.851Z,101406.31
2019-04-28T01:22:37.174Z,101403.69
2019-04-28T01:25:04.676Z,101404.80
2019-04-28T01:27:51.503Z,101408.88
2019-04-28T01:30:40.112Z,101404.80
2019-04-28T01:33:17.064Z,101414.19
2019-04-28T01:35:44.303Z,101412.87
2019-04-28T01:38:12.270Z,101427.50
2019-04-28T01:40:41.272Z,101425.05
2019-04-28T01:43:09.701Z,101421.17
2019-04-28T01:45:37.077Z,101420.36
2019-04-28T01:48:04.318Z,101426.00
2019-04-28T01:50:31.542Z,101428.98
2019-04-28T01:52:59.760Z,101426.42
2019-04-28T01:55:27.179Z,101430.77
2019-04-28T01:57:54.398Z,101432.42
2019-04-28T02:00:25.455Z,101426.61
2019-04-28T02:02:51.039Z,101422.06
2019-04-28T02:05:19.670Z,101426.75
2019-04-28T02:07:47.092Z,101426.52
2019-04-28T02:10:14.368Z,101427.60
2019-04-28T02:12:41.629Z,101431.03
2019-04-28T02:15:10.486Z,101435.48
2019-04-28T02:17:39.997Z,101435.89
2019-04-28T02:20:10.347Z,101441.05
2019-04-28T02:22:46.244Z,101444.91
2019-04-28T02:25:13.472Z,101451.41
2019-04-28T02:27:40.717Z,101448.46
2019-04-28T02:30:11.509Z,101449.30
2019-04-28T02:32:40.701Z,101454.31
2019-04-28T02:35:10.398Z,101445.31
2019-04-28T02:37:36.749Z,101444.75
2019-04-28T02:40:04.788Z,101445.77
2019-04-28T02:42:32.016Z,101450.83
2019-04-28T02:45:00.585Z,101455.93
2019-04-28T02:47:28.136Z,101456.26
2019-04-28T02:50:17.949Z,101460.73
2019-04-28T02:53:02.317Z,101462.19
2019-04-28T02:55:31.659Z,101458.84
2019-04-28T02:58:01.427Z,101462.84
2019-04-28T03:00:28.077Z,101455.95
2019-04-28T03:02:55.353Z,101462.19
2019-04-28T03:05:22.672Z,101466.12
2019-04-28T03:07:51.483Z,101458.58
2019-04-28T03:10:21.340Z,101471.69
2019-04-28T03:12:51.334Z,101468.50
2019-04-28T03:15:20.218Z,101473.33
2019-04-28T03:17:46.632Z,101474.91
2019-04-28T03:20:13.859Z,101472.05
2019-04-28T03:22:41.217Z,101483.05
2019-04-28T03:25:13.175Z,101478.27
2019-04-28T03:28:00.595Z,101481.78
2019-04-28T03:30:53.787Z,101481.36
2019-04-28T03:33:25.128Z,101486.95
2019-04-28T03:35:53.391Z,101492.11
2019-04-28T03:38:21.219Z,101485.55
2019-04-28T03:40:47.446Z,101487.60
2019-04-28T03:43:14.898Z,101493.16
2019-04-28T03:45:50.336Z,101501.13
2019-04-28T03:48:17.739Z,101503.97
2019-04-28T03:50:44.994Z,101506.95
2019-04-28T03:53:12.220Z,101504.33
2019-04-28T03:55:41.573Z,101505.22
2019-04-28T03:58:10.367Z,101506.20
2019-04-28T04:00:40.625Z,101512.41
2019-04-28T04:03:06.894Z,101510.30
2019-04-28T04:05:34.227Z,101515.13
2019-04-28T04:08:01.490Z,101515.95
2019-04-28T04:10:40.856Z,101517.73
2019-04-28T04:13:33.063Z,101512.17
2019-04-28T04:16:20.518Z,101514.67
2019-04-28T04:18:53.158Z,101504.66
2019-04-28T04:21:21.180Z,101511.73
2019-04-28T04:23:47.215Z,101513.93
2019-04-28T04:26:14.425Z,101512.81
2019-04-28T04:28:42.033Z,101508.72
2019-04-28T04:31:10.377Z,101518.88
2019-04-28T04:33:40.750Z,101519.59
2019-04-28T04:36:07.025Z,101521.11
2019-04-28T04:38:34.250Z,101526.92
2019-04-28T04:41:01.900Z,101527.86
2019-04-28T04:43:31.057Z,101535.88
2019-04-28T04:46:17.533Z,101532.92
2019-04-28T04:48:45.408Z,101533.88
2019-04-28T04:51:12.971Z,101531.65
2019-04-28T04:53:40.872Z,101539.05
2019-04-28T04:56:10.514Z,101533.81
2019-04-28T04:58:37.507Z,101539.25
2019-04-28T05:01:14.443Z,101544.55
2019-04-28T05:03:43.278Z,101546.43
2019-04-28T05:06:29.799Z,101548.66
2019-04-28T05:08:57.159Z,101551.36
2019-04-28T05:11:24.418Z,101552.77
2019-04-28T05:13:51.650Z,101553.92
2019-04-28T05:16:19.757Z,101553.92
2019-04-28T05:18:47.147Z,101558.42
2019-04-28T05:21:14.465Z,101561.13
2019-04-28T05:23:49.314Z,101565.34
2019-04-28T05:26:16.829Z,101557.30
2019-04-28T05:28:50.597Z,101557.30
2019-04-28T05:31:19.938Z,101582.14
2019-04-28T05:33:42.378Z,101578.37
2019-04-28T05:36:11.813Z,101579.25
2019-04-28T05:38:40.169Z,101588.02
2019-04-28T05:41:10.432Z,101579.92
2019-04-28T05:43:37.380Z,101582.16
2019-04-28T05:46:04.679Z,101585.12
2019-04-28T05:48:47.224Z,101576.50
2019-04-28T05:51:19.770Z,101589.41
2019-04-28T05:53:53.880Z,101601.92
2019-04-28T05:56:26.979Z,101593.75
2019-04-28T05:59:01.055Z,101598.12
2019-04-28T06:01:46.485Z,101596.81
2019-04-28T06:04:13.724Z,101600.88
2019-04-28T06:06:43.057Z,101600.48
2019-04-28T06:09:20.542Z,101599.71
2019-04-28T06:11:49.529Z,101607.81
2019-04-28T06:14:17.355Z,101603.28
2019-04-28T06:16:44.782Z,101603.28
2019-04-28T06:19:12.052Z,101611.42
2019-04-28T06:21:39.304Z,101614.44
2019-04-28T06:24:06.529Z,101615.52
2019-04-28T06:26:33.817Z,101620.13
2019-04-28T06:29:01.040Z,101618.48
2019-04-28T06:31:28.389Z,101620.02
2019-04-28T06:33:55.660Z,101621.45
2019-04-28T06:36:22.913Z,101623.88
2019-04-28T06:38:50.151Z,101627.94
2019-04-28T06:41:17.404Z,101621.58
2019-04-28T06:43:44.644Z,101622.75
2019-04-28T06:46:11.967Z,101626.97
2019-04-28T06:48:39.452Z,101627.29
2019-04-28T06:51:06.676Z,101632.17
2019-04-28T06:53:33.993Z,101632.96
2019-04-28T06:56:01.247Z,101635.02
2019-04-28T06:58:29.001Z,101628.58
2019-04-28T07:00:56.365Z,101633.97
2019-04-28T07:03:23.604Z,101642.49
2019-04-28T07:05:50.830Z,101642.92
2019-04-28T07:08:18.085Z,101641.52
2019-04-28T07:10:48.411Z,101644.97
2019-04-28T07:13:15.716Z,101645.34
2019-04-28T07:15:42.946Z,101646.53
2019-04-28T07:18:10.173Z,101644.85
2019-04-28T07:20:59.869Z,101644.16
2019-04-28T07:23:27.237Z,101652.20
2019-04-28T07:25:54.475Z,101654.26
2019-04-28T07:28:21.770Z,101656.91
2019-04-28T07:30:49.360Z,101660.51
2019-04-28T07:33:16.758Z,101661.02
2019-04-28T07:35:44.158Z,101658.61
2019-04-28T07:38:11.463Z,101662.05
2019-04-28T07:40:39.746Z,101666.85
2019-04-28T07:43:07.152Z,101671.23
2019-04-28T07:45:34.654Z,101671.61
2019-04-28T07:48:01.980Z,101674.63
2019-04-28T07:50:29.254Z,101676.33
2019-04-28T07:53:17.174Z,101676.33
2019-04-28T07:55:44.430Z,101673.89
2019-04-28T07:58:11.997Z,101690.13
2019-04-28T08:00:39.420Z,101693.23
2019-04-28T08:03:06.694Z,101691.25
2019-04-28T08:05:34.014Z,101688.83
2019-04-28T08:08:01.274Z,101687.02
2019-04-28T08:10:28.661Z,101694.87
2019-04-28T08:12:55.935Z,101701.23
2019-04-28T08:15:23.162Z,101697.14
2019-04-28T08:17:50.393Z,101708.69
2019-04-28T08:20:17.694Z,101709.49
2019-04-28T08:22:44.938Z,101704.09
2019-04-28T08:25:12.182Z,101711.73
2019-04-28T08:27:39.612Z,101712.28
2019-04-28T08:30:07.165Z,101711.91
2019-04-28T08:32:40.759Z,101718.72
2019-04-28T08:35:08.120Z,101718.23
2019-04-28T08:37:35.417Z,101718.35
2019-04-28T08:40:03.264Z,101723.23
2019-04-28T08:42:30.529Z,101730.11
2019-04-28T08:44:57.795Z,101732.11
2019-04-28T08:47:25.170Z,101740.81
2019-04-28T08:49:52.410Z,101738.75
2019-04-28T08:52:19.633Z,101738.38
2019-04-28T08:54:46.958Z,101735.84
2019-04-28T08:57:14.177Z,101735.43
2019-04-28T08:59:41.401Z,101739.98
2019-04-28T09:02:08.676Z,101748.36
2019-04-28T09:04:35.911Z,101746.17
2019-04-28T09:07:03.246Z,101749.47
2019-04-28T09:09:30.625Z,101751.63
2019-04-28T09:11:57.893Z,101762.86
2019-04-28T09:14:25.127Z,101762.15
2019-04-28T09:16:52.495Z,101772.03
2019-04-28T09:19:19.760Z,101771.23
2019-04-28T09:21:46.991Z,101775.81
2019-04-28T09:24:14.217Z,101784.92
2019-04-28T09:26:41.488Z,101789.11
2019-04-28T09:29:08.811Z,101792.87
2019-04-28T09:31:36.390Z,101795.52
2019-04-28T09:34:04.072Z,101797.86
2019-04-28T09:36:31.520Z,101794.50
2019-04-28T09:38:59.362Z,101795.12
2019-04-28T09:41:26.882Z,101796.41
2019-04-28T09:44:16.670Z,101805.43
2019-04-28T09:46:44.025Z,101802.47
2019-04-28T09:49:11.840Z,101805.12
2019-04-28T09:51:39.102Z,101808.73
2019-04-28T09:54:06.591Z,101812.17
2019-04-28T09:56:33.818Z,101813.88
2019-04-28T09:59:01.044Z,101820.61
2019-04-28T10:01:28.398Z,101813.78
2019-04-28T10:03:55.629Z,101816.42
2019-04-28T10:06:22.858Z,101824.27
2019-04-28T10:08:50.131Z,101821.34
2019-04-28T10:11:29.721Z,101826.36
2019-04-28T10:13:46.511Z,101828.73
2019-04-28T10:16:13.753Z,101829.09
2019-04-28T10:18:40.988Z,101835.34
2019-04-28T10:21:08.283Z,101840.71
2019-04-28T10:23:35.515Z,101846.75
2019-04-28T10:26:02.761Z,101837.54
2019-04-28T10:28:30.054Z,101844.68
2019-04-28T10:30:57.288Z,101844.25
2019-04-28T10:33:24.513Z,101845.08
2019-04-28T10:35:51.774Z,101854.91
2019-04-28T10:38:19.016Z,101854.20
2019-04-28T10:40:58.548Z,101865.49
2019-04-28T10:43:26.116Z,101868.52
2019-04-28T10:45:53.399Z,101870.79
2019-04-28T10:48:20.658Z,101877.20
2019-04-28T10:50:47.959Z,101874.55
2019-04-28T10:53:15.218Z,101881.55
2019-04-28T10:55:42.437Z,101880.78
2019-04-28T10:58:09.714Z,101876.76
2019-04-28T11:00:38.786Z,101880.33
2019-04-28T11:03:06.134Z,101880.41
2019-04-28T11:05:37.792Z,101881.92
2019-04-28T11:08:07.887Z,101884.70
2019-04-28T11:10:35.106Z,101889.62
2019-04-28T11:13:02.402Z,101892.41
2019-04-28T11:15:34.896Z,101896.06
2019-04-28T11:18:02.220Z,101893.30
2019-04-28T11:20:30.054Z,101889.32
2019-04-28T11:22:57.281Z,101898.63
2019-04-28T11:25:24.510Z,101896.03
2019-04-28T11:27:51.780Z,101897.79
2019-04-28T11:30:19.314Z,101901.45
2019-04-28T11:33:18.397Z,101904.89
2019-04-28T11:35:45.916Z,101907.52
2019-04-28T11:38:13.162Z,101911.70
2019-04-28T11:40:40.450Z,101915.84
2019-04-28T11:43:07.689Z,101913.36
2019-04-28T11:45:35.027Z,101915.45
2019-04-28T11:48:02.547Z,101918.16
2019-04-28T11:50:29.841Z,101921.27
2019-04-28T11:52:57.059Z,101924.41
2019-04-28T11:55:24.345Z,101925.57
2019-04-28T11:57:51.580Z,101927.36
2019-04-28T12:00:31.618Z,101929.28
2019-04-28T12:02:59.036Z,101934.08
2019-04-28T12:05:34.706Z,101932.05
2019-04-28T12:08:00.550Z,101934.80
2019-04-28T12:10:32.483Z,101939.77
2019-04-28T12:13:25.313Z,101940.00
2019-04-28T12:16:16.291Z,101943.14
2019-04-28T12:18:49.355Z,101947.51
2019-04-28T12:21:16.591Z,101949.98
2019-04-28T12:23:44.239Z,101957.47
2019-04-28T12:26:11.520Z,101957.03
2019-04-28T12:28:38.778Z,101954.22
2019-04-28T12:31:08.015Z,101962.91
2019-04-28T12:33:35.320Z,101960.25
2019-04-28T12:36:04.652Z,101964.70
2019-04-28T12:38:31.909Z,101973.76
2019-04-28T12:40:59.170Z,101973.72
2019-04-28T12:43:26.486Z,101981.42
2019-04-28T12:45:53.725Z,101986.39
2019-04-28T12:48:21.039Z,101985.92
2019-04-28T12:50:50.040Z,101986.61
2019-04-28T12:53:17.276Z,101991.86
2019-04-28T12:55:44.554Z,101994.27
2019-04-28T12:58:11.850Z,102001.40
2019-04-28T13:00:57.207Z,101997.64
2019-04-28T13:03:33.310Z,102007.23
2019-04-28T13:06:05.550Z,102017.05
2019-04-28T13:08:31.298Z,102022.96
2019-04-28T13:10:58.575Z,102025.75
2019-04-28T13:13:25.816Z,102019.38
2019-04-28T13:15:53.049Z,102009.13
2019-04-28T13:18:20.332Z,102025.27
2019-04-28T13:20:47.588Z,102025.27
2019-04-28T13:23:14.808Z,102031.92
2019-04-28T13:25:42.137Z,102027.41
2019-04-28T13:28:09.338Z,102020.53
2019-04-28T13:30:36.573Z,102028.89
2019-04-28T13:33:03.870Z,102026.27
2019-04-28T13:35:31.222Z,102017.23
2019-04-28T13:37:58.461Z,102026.61
2019-04-28T13:40:29.558Z,102026.61
2019-04-28T13:42:56.831Z,102032.98
2019-04-28T13:45:24.381Z,102032.98
2019-04-28T13:47:51.594Z,102038.25
2019-04-28T13:50:27.235Z,102044.89
2019-04-28T13:52:54.456Z,102044.02
2019-04-28T13:55:39.730Z,102041.05
2019-04-28T13:58:07.105Z,102032.09
2019-04-28T14:00:57.938Z,102018.18
2019-04-28T14:03:44.699Z,102018.18
2019-04-28T14:06:27.218Z,102039.95
2019-04-28T14:08:43.486Z,102033.23
2019-04-28T14:11:10.871Z,102036.39
2019-04-28T14:13:38.152Z,102036.39
2019-04-28T14:16:05.588Z,102041.38
2019-04-28T14:18:32.859Z,102036.53
2019-04-28T14:21:00.078Z,102036.53
2019-04-28T14:23:27.341Z,102045.70
2019-04-28T14:25:54.572Z,102051.53
2019-04-28T14:28:21.816Z,102052.86
2019-04-28T14:30:49.108Z,102046.64
2019-04-28T14:33:16.782Z,102035.62
2019-04-28T14:35:44.115Z,102035.62
2019-04-28T14:38:11.384Z,102054.11
2019-04-28T14:40:38.627Z,102054.11
2019-04-28T14:43:05.849Z,102058.83
2019-04-28T14:45:33.324Z,102056.67
2019-04-28T14:48:00.625Z,102059.23
2019-04-28T14:50:27.935Z,102062.09
2019-04-28T14:52:55.253Z,102062.11
2019-04-28T14:55:22.562Z,102064.39
2019-04-28T14:57:49.807Z,102062.27
2019-04-28T15:00:22.262Z,102062.02
2019-04-28T15:03:02.300Z,102054.66
2019-04-28T15:05:41.256Z,102056.80
2019-04-28T15:08:26.459Z,102062.28
2019-04-28T15:11:01.184Z,102055.31
2019-04-28T15:13:28.427Z,102065.76
2019-04-28T15:15:55.639Z,102063.68
2019-04-28T15:18:22.994Z,102055.77
2019-04-28T15:20:50.314Z,102070.70
2019-04-28T15:23:17.507Z,102066.72
2019-04-28T15:25:44.736Z,102065.22
2019-04-28T15:28:12.045Z,102069.35
2019-04-28T15:30:39.319Z,102074.27
2019-04-28T15:33:06.677Z,102074.27
2019-04-28T15:35:33.995Z,102080.02
2019-04-28T15:38:01.225Z,102081.80
2019-04-28T15:40:28.522Z,102088.41
2019-04-28T15:42:55.759Z,102088.02
2019-04-28T15:45:22.978Z,102087.58
2019-04-28T15:47:50.290Z,102084.58
2019-04-28T15:50:17.547Z,102083.88
2019-04-28T15:52:44.831Z,102089.14
2019-04-28T15:55:14.423Z,102093.57
2019-04-28T15:57:41.653Z,102097.14
2019-04-28T16:00:11.978Z,102098.47
2019-04-28T16:02:39.237Z,102095.86
2019-04-28T16:05:06.892Z,102096.64
2019-04-28T16:07:34.124Z,102103.77
2019-04-28T16:10:01.387Z,102112.31
2019-04-28T16:12:28.633Z,102099.89
2019-04-28T16:14:55.873Z,102105.89
2019-04-28T16:17:23.172Z,102117.95
2019-04-28T16:19:50.389Z,102116.65
2019-04-28T16:22:17.629Z,102109.62
2019-04-28T16:24:44.917Z,102114.27
2019-04-28T16:27:12.246Z,102113.76
2019-04-28T16:29:39.477Z,102106.77
2019-04-28T16:32:09.691Z,102106.77
2019-04-28T16:34:36.025Z,102113.38
2019-04-28T16:37:03.266Z,102117.98
2019-04-28T16:39:30.521Z,102117.94
2019-04-28T16:41:58.450Z,102115.63
2019-04-28T16:44:26.412Z,102119.80
2019-04-28T16:46:53.651Z,102119.38
2019-04-28T16:49:20.965Z,102127.73
2019-04-28T16:51:48.243Z,102137.39
2019-04-28T16:54:15.483Z,102125.13
2019-04-28T16:57:05.127Z,102135.77
2019-04-28T16:59:50.583Z,102132.80
2019-04-28T17:02:37.399Z,102139.95
2019-04-28T17:05:05.863Z,102144.94
2019-04-28T17:07:33.189Z,102146.17
2019-04-28T17:10:00.472Z,102154.09
2019-04-28T17:12:27.702Z,102162.66
2019-04-28T17:14:54.914Z,102160.78
2019-04-28T17:17:22.178Z,102158.77
2019-04-28T17:19:49.417Z,102166.02
2019-04-28T17:22:16.667Z,102171.70
2019-04-28T17:24:44.025Z,102172.64
2019-04-28T17:27:11.271Z,102176.09
2019-04-28T17:29:38.822Z,102175.64
2019-04-28T17:32:06.138Z,102180.05
2019-04-28T17:34:33.403Z,102187.41
2019-04-28T17:37:00.679Z,102187.41
2019-04-28T17:39:29.589Z,102195.67
2019-04-28T17:41:56.853Z,102199.62
2019-04-28T17:44:24.184Z,102186.87
2019-04-28T17:46:51.490Z,102198.03
2019-04-28T17:49:24.221Z,102198.93
2019-04-28T17:51:51.588Z,102194.83
2019-04-28T17:54:18.853Z,102194.75
2019-04-28T17:56:46.078Z,102203.88
2019-04-28T17:59:13.353Z,102203.88
2019-04-28T18:02:12.321Z,102203.64
2019-04-28T18:04:59.138Z,102207.88
2019-04-28T18:07:34.504Z,102207.56
2019-04-28T18:10:01.880Z,102215.98
2019-04-28T18:12:29.095Z,102222.89
2019-04-28T18:15:02.131Z,102224.17
2019-04-28T18:18:01.333Z,102224.54
2019-04-28T18:20:28.952Z,102225.82
2019-04-28T18:22:56.232Z,102225.07
2019-04-28T18:25:23.560Z,102230.44
2019-04-28T18:27:50.815Z,102234.63
2019-04-28T18:30:20.692Z,102232.41
2019-04-28T18:33:17.072Z,102239.48
2019-04-28T18:35:51.046Z,102242.20
2019-04-28T18:38:40.700Z,102236.82
2019-04-28T18:41:26.138Z,102255.52
2019-04-28T18:44:06.619Z,102258.81
2019-04-28T18:46:33.884Z,102257.64
2019-04-28T18:49:01.109Z,102269.50
2019-04-28T18:51:28.385Z,102272.98
2019-04-28T18:53:55.649Z,102268.36
2019-04-28T18:56:22.886Z,102276.84
2019-04-28T18:58:50.175Z,102278.16
2019-04-28T19:01:31.647Z,102273.95
2019-04-28T19:03:58.928Z,102296.03
2019-04-28T19:06:26.153Z,102296.03
2019-04-28T19:08:58.742Z,102294.97
2019-04-28T19:11:45.611Z,102300.81
2019-04-28T19:14:22.128Z,102309.41
2019-04-28T19:17:11.630Z,102314.83
2019-04-28T19:19:39.072Z,102303.95
2019-04-28T19:22:06.334Z,102308.91
2019-04-28T19:24:33.647Z,102309.58
2019-04-28T19:27:00.862Z,102307.09
2019-04-28T19:29:28.090Z,102308.41
2019-04-28T19:31:55.363Z,102302.64
2019-04-28T19:34:22.577Z,102306.67
2019-04-28T19:36:49.857Z,102313.36
2019-04-28T19:39:17.114Z,102306.78
2019-04-28T19:41:44.342Z,102314.81
2019-04-28T19:44:11.575Z,102324.22
2019-04-28T19:46:38.844Z,102326.70
2019-04-28T19:49:06.065Z,102326.70
2019-04-28T19:51:33.392Z,102327.50
2019-04-28T19:54:00.940Z,102328.56
2019-04-28T19:56:47.697Z,102328.56
2019-04-28T19:59:22.149Z,102335.88
2019-04-28T20:01:49.477Z,102335.88
2019-04-28T20:04:16.710Z,102342.47
2019-04-28T20:06:43.987Z,102352.61
2019-04-28T20:09:12.602Z,102355.30
2019-04-28T20:11:40.214Z,102356.05
2019-04-28T20:14:07.491Z,102351.19
2019-04-28T20:16:34.711Z,102355.05
2019-04-28T20:19:01.935Z,102364.98
2019-04-28T20:21:29.189Z,102359.28
2019-04-28T20:23:56.767Z,102359.28
2019-04-28T20:26:24.047Z,102367.77
2019-04-28T20:28:51.326Z,102368.91
2019-04-28T20:31:18.556Z,102373.49
2019-04-28T20:33:45.775Z,102366.43
2019-04-28T20:36:25.010Z,102375.64
2019-04-28T20:38:55.401Z,102379.00
2019-04-28T20:41:24.635Z,102369.01
2019-04-28T20:43:53.175Z,102369.01
2019-04-28T20:46:20.865Z,102371.33
2019-04-28T20:48:48.106Z,102375.10
2019-04-28T20:51:15.393Z,102375.10
2019-04-28T20:53:42.716Z,102379.05
2019-04-28T20:56:09.980Z,102383.14
2019-04-28T20:58:37.274Z,102377.95
2019-04-28T21:01:04.703Z,102377.95
2019-04-28T21:03:31.961Z,102384.94
2019-04-28T21:05:59.243Z,102384.94
2019-04-28T21:08:26.512Z,102392.35
2019-04-28T21:10:53.768Z,102389.03
2019-04-28T21:13:21.066Z,102391.59
2019-04-28T21:15:48.307Z,102378.00
2019-04-28T21:18:15.546Z,102395.89
2019-04-28T21:20:42.796Z,102393.20
2019-04-28T21:23:10.104Z,102393.09
2019-04-28T21:25:37.420Z,102384.05
2019-04-28T21:28:04.708Z,102384.05
2019-04-28T21:30:31.985Z,102397.73
2019-04-28T21:32:59.219Z,102397.73
2019-04-28T21:35:26.520Z,102398.24
2019-04-28T21:37:53.753Z,102406.89
2019-04-28T21:40:21.100Z,102402.11
2019-04-28T21:43:10.741Z,102406.99
2019-04-28T21:46:03.284Z,102408.69
2019-04-28T21:48:37.165Z,102404.74
2019-04-28T21:51:04.431Z,102413.08
2019-04-28T21:53:31.761Z,102413.08
2019-04-28T21:55:59.087Z,102419.34
2019-04-28T21:58:32.945Z,102421.48
2019-04-28T22:00:56.114Z,102420.47
2019-04-28T22:03:23.491Z,102412.53
2019-04-28T22:05:50.940Z,102412.53
2019-04-28T22:08:18.326Z,102422.82
2019-04-28T22:10:45.627Z,102417.27
2019-04-28T22:13:12.854Z,102429.41
2019-04-28T22:15:40.115Z,102427.92
2019-04-28T22:18:07.459Z,102427.92
2019-04-28T22:20:34.751Z,102427.73
2019-04-28T22:23:17.829Z,102427.63
2019-04-28T22:25:33.739Z,102427.56
2019-04-28T22:28:00.985Z,102431.39
2019-04-28T22:30:28.197Z,102436.05
2019-04-28T22:32:55.437Z,102438.50
2019-04-28T22:35:22.717Z,102442.75
2019-04-28T22:37:49.934Z,102448.72
2019-04-28T22:40:17.164Z,102446.81
2019-04-28T22:42:44.477Z,102455.59
2019-04-28T22:45:13.394Z,102451.88
2019-04-28T22:47:40.917Z,102449.45
2019-04-28T22:50:30.016Z,102442.09
2019-04-28T22:52:57.310Z,102454.44
2019-04-28T22:55:24.933Z,102453.13
2019-04-28T22:58:11.370Z,102460.00
2019-04-28T23:01:00.546Z,102457.56
2019-04-28T23:03:53.554Z,102461.24
2019-04-28T23:06:21.016Z,102467.92
2019-04-28T23:08:48.335Z,102474.19
2019-04-28T23:11:15.724Z,102474.19
2019-04-28T23:13:43.440Z,102479.34
2019-04-28T23:16:10.782Z,102479.63
2019-04-28T23:18:38.024Z,102478.13
2019-04-28T23:21:13.178Z,102475.80
2019-04-28T23:23:40.433Z,102481.06
2019-04-28T23:26:07.696Z,102484.31
2019-04-28T23:28:35.223Z,102485.41
2019-04-28T23:31:02.565Z,102488.36
2019-04-28T23:33:29.793Z,102478.08
2019-04-28T23:35:57.445Z,102478.08
2019-04-28T23:38:24.670Z,102494.21
2019-04-28T23:41:11.593Z,102490.49
2019-04-28T23:43:38.903Z,102493.83
2019-04-28T23:46:06.155Z,102498.36
2019-04-28T23:48:33.413Z,102488.98
2019-04-28T23:51:10.076Z,102494.22
2019-04-28T23:53:57.633Z,102493.33
2019-04-28T23:56:24.916Z,102491.90
2019-04-28T23:58:52.157Z,102494.33
